sensor_id;sensor_type;location;lat;lon;timestamp;temperature;humidity
18392;DHT22;9322;50.932;5.318;2022-09-09T00:01:00;15.40;99.90
18392;DHT22;9322;50.932;5.318;2022-09-09T00:03:30;15.50;99.90
18392;DHT22;9322;50.932;5.318;2022-09-09T00:06:14;15.40;99.90
18392;DHT22;9322;50.932;5.318;2022-09-09T00:09:18;15.50;99.90
18392;DHT22;9322;50.932;5.318;2022-09-09T00:12:10;15.50;99.90
18392;DHT22;9322;50.932;5.318;2022-09-09T00:14:53;15.50;99.90
18392;DHT22;9322;50.932;5.318;2022-09-09T00:20:32;15.30;99.90
18392;DHT22;9322;50.932;5.318;2022-09-09T00:23:21;15.40;99.90
18392;DHT22;9322;50.932;5.318;2022-09-09T00:26:40;15.40;99.90
18392;DHT22;9322;50.932;5.318;2022-09-09T00:31:30;15.30;99.90
18392;DHT22;9322;50.932;5.318;2022-09-09T00:34:15;15.20;99.90
18392;DHT22;9322;50.932;5.318;2022-09-09T00:36:43;15.20;99.90
18392;DHT22;9322;50.932;5.318;2022-09-09T00:39:28;15.20;99.90
18392;DHT22;9322;50.932;5.318;2022-09-09T00:42:36;15.20;99.90
18392;DHT22;9322;50.932;5.318;2022-09-09T00:45:28;15.20;99.90
18392;DHT22;9322;50.932;5.318;2022-09-09T00:48:04;15.10;99.90
18392;DHT22;9322;50.932;5.318;2022-09-09T00:50:53;15.10;99.90
18392;DHT22;9322;50.932;5.318;2022-09-09T00:56:39;15.10;99.90
18392;DHT22;9322;50.932;5.318;2022-09-09T01:01:36;15.00;99.90
18392;DHT22;9322;50.932;5.318;2022-09-09T01:04:07;15.00;99.90
18392;DHT22;9322;50.932;5.318;2022-09-09T01:06:37;15.00;99.90
18392;DHT22;9322;50.932;5.318;2022-09-09T01:12:09;15.00;99.90
18392;DHT22;9322;50.932;5.318;2022-09-09T01:22:34;15.10;99.90
18392;DHT22;9322;50.932;5.318;2022-09-09T01:27:49;15.20;99.90
18392;DHT22;9322;50.932;5.318;2022-09-09T01:30:18;15.20;99.90
18392;DHT22;9322;50.932;5.318;2022-09-09T01:32:49;15.20;99.90
18392;DHT22;9322;50.932;5.318;2022-09-09T01:38:07;15.30;99.90
18392;DHT22;9322;50.932;5.318;2022-09-09T01:40:33;15.20;99.90
18392;DHT22;9322;50.932;5.318;2022-09-09T01:42:58;15.10;99.90
18392;DHT22;9322;50.932;5.318;2022-09-09T01:45:25;15.20;99.90
18392;DHT22;9322;50.932;5.318;2022-09-09T01:47:52;15.10;99.90
18392;DHT22;9322;50.932;5.318;2022-09-09T01:50:19;15.10;99.90
18392;DHT22;9322;50.932;5.318;2022-09-09T01:52:48;15.10;99.90
18392;DHT22;9322;50.932;5.318;2022-09-09T01:55:15;15.10;99.90
18392;DHT22;9322;50.932;5.318;2022-09-09T02:00:25;15.10;99.90
18392;DHT22;9322;50.932;5.318;2022-09-09T02:03:00;15.20;99.90
18392;DHT22;9322;50.932;5.318;2022-09-09T02:08:24;15.30;99.90
18392;DHT22;9322;50.932;5.318;2022-09-09T02:10:56;15.30;99.90
18392;DHT22;9322;50.932;5.318;2022-09-09T02:13:24;15.30;99.90
18392;DHT22;9322;50.932;5.318;2022-09-09T02:16:08;15.30;99.90
18392;DHT22;9322;50.932;5.318;2022-09-09T02:18:50;15.20;99.90
18392;DHT22;9322;50.932;5.318;2022-09-09T02:21:17;15.30;99.90
18392;DHT22;9322;50.932;5.318;2022-09-09T02:23:43;15.30;99.90
18392;DHT22;9322;50.932;5.318;2022-09-09T02:26:13;15.30;99.90
18392;DHT22;9322;50.932;5.318;2022-09-09T02:28:46;15.20;99.90
18392;DHT22;9322;50.932;5.318;2022-09-09T02:31:13;15.30;99.90
18392;DHT22;9322;50.932;5.318;2022-09-09T02:33:44;15.30;99.90
18392;DHT22;9322;50.932;5.318;2022-09-09T02:36:12;15.20;99.90
18392;DHT22;9322;50.932;5.318;2022-09-09T02:38:45;15.20;99.90
18392;DHT22;9322;50.932;5.318;2022-09-09T02:41:35;15.20;99.90
18392;DHT22;9322;50.932;5.318;2022-09-09T02:44:01;15.10;99.90
18392;DHT22;9322;50.932;5.318;2022-09-09T02:49:16;15.20;99.90
18392;DHT22;9322;50.932;5.318;2022-09-09T02:52:03;15.10;99.90
18392;DHT22;9322;50.932;5.318;2022-09-09T02:54:32;15.10;99.90
18392;DHT22;9322;50.932;5.318;2022-09-09T02:57:28;15.10;99.90
18392;DHT22;9322;50.932;5.318;2022-09-09T02:59:57;15.20;99.90
18392;DHT22;9322;50.932;5.318;2022-09-09T03:02:24;15.10;99.90
18392;DHT22;9322;50.932;5.318;2022-09-09T03:04:50;15.20;99.90
18392;DHT22;9322;50.932;5.318;2022-09-09T03:07:18;15.20;99.90
18392;DHT22;9322;50.932;5.318;2022-09-09T03:09:44;15.20;99.90
18392;DHT22;9322;50.932;5.318;2022-09-09T03:12:10;15.10;99.90
18392;DHT22;9322;50.932;5.318;2022-09-09T03:14:37;15.20;99.90
18392;DHT22;9322;50.932;5.318;2022-09-09T03:17:04;15.20;99.90
18392;DHT22;9322;50.932;5.318;2022-09-09T03:19:30;15.20;99.90
18392;DHT22;9322;50.932;5.318;2022-09-09T03:21:56;15.50;99.90
18392;DHT22;9322;50.932;5.318;2022-09-09T03:24:21;15.20;99.90
18392;DHT22;9322;50.932;5.318;2022-09-09T03:26:48;15.20;99.90
18392;DHT22;9322;50.932;5.318;2022-09-09T03:29:14;15.30;99.90
18392;DHT22;9322;50.932;5.318;2022-09-09T03:31:40;15.40;99.90
18392;DHT22;9322;50.932;5.318;2022-09-09T03:34:06;15.40;99.90
18392;DHT22;9322;50.932;5.318;2022-09-09T03:36:32;15.40;99.90
18392;DHT22;9322;50.932;5.318;2022-09-09T03:38:58;15.40;99.90
18392;DHT22;9322;50.932;5.318;2022-09-09T03:41:24;15.50;99.90
18392;DHT22;9322;50.932;5.318;2022-09-09T03:43:51;15.50;99.90
18392;DHT22;9322;50.932;5.318;2022-09-09T03:46:21;15.50;99.90
18392;DHT22;9322;50.932;5.318;2022-09-09T03:48:46;15.50;99.90
18392;DHT22;9322;50.932;5.318;2022-09-09T03:51:12;15.60;99.90
18392;DHT22;9322;50.932;5.318;2022-09-09T03:53:38;15.60;99.90
18392;DHT22;9322;50.932;5.318;2022-09-09T03:56:04;15.60;99.90
18392;DHT22;9322;50.932;5.318;2022-09-09T03:58:33;15.50;99.90
18392;DHT22;9322;50.932;5.318;2022-09-09T04:01:01;15.40;99.90
18392;DHT22;9322;50.932;5.318;2022-09-09T04:03:28;15.40;99.90
18392;DHT22;9322;50.932;5.318;2022-09-09T04:05:55;15.50;99.90
18392;DHT22;9322;50.932;5.318;2022-09-09T04:08:21;15.50;99.90
18392;DHT22;9322;50.932;5.318;2022-09-09T04:10:49;15.50;99.90
18392;DHT22;9322;50.932;5.318;2022-09-09T04:13:16;15.40;99.90
18392;DHT22;9322;50.932;5.318;2022-09-09T04:15:43;15.40;99.90
18392;DHT22;9322;50.932;5.318;2022-09-09T04:18:09;15.30;99.90
18392;DHT22;9322;50.932;5.318;2022-09-09T04:20:35;15.30;99.90
18392;DHT22;9322;50.932;5.318;2022-09-09T04:23:01;15.20;99.90
18392;DHT22;9322;50.932;5.318;2022-09-09T04:25:26;15.30;99.90
18392;DHT22;9322;50.932;5.318;2022-09-09T04:27:56;15.30;99.90
18392;DHT22;9322;50.932;5.318;2022-09-09T04:30:23;15.40;99.90
18392;DHT22;9322;50.932;5.318;2022-09-09T04:32:48;15.40;99.90
18392;DHT22;9322;50.932;5.318;2022-09-09T04:35:14;15.40;99.90
18392;DHT22;9322;50.932;5.318;2022-09-09T04:37:40;15.40;99.90
18392;DHT22;9322;50.932;5.318;2022-09-09T04:40:07;15.20;99.90
18392;DHT22;9322;50.932;5.318;2022-09-09T04:42:38;15.20;99.90
18392;DHT22;9322;50.932;5.318;2022-09-09T04:45:05;15.20;99.90
18392;DHT22;9322;50.932;5.318;2022-09-09T04:47:32;15.10;99.90
18392;DHT22;9322;50.932;5.318;2022-09-09T04:49:58;15.00;99.90
18392;DHT22;9322;50.932;5.318;2022-09-09T04:52:23;15.10;99.90
18392;DHT22;9322;50.932;5.318;2022-09-09T04:54:49;15.20;99.90
18392;DHT22;9322;50.932;5.318;2022-09-09T04:57:14;15.10;99.90
18392;DHT22;9322;50.932;5.318;2022-09-09T04:59:40;15.10;99.90
18392;DHT22;9322;50.932;5.318;2022-09-09T05:02:06;15.00;99.90
18392;DHT22;9322;50.932;5.318;2022-09-09T05:04:32;15.00;99.90
18392;DHT22;9322;50.932;5.318;2022-09-09T05:06:58;15.00;99.90
18392;DHT22;9322;50.932;5.318;2022-09-09T05:09:24;15.10;99.90
18392;DHT22;9322;50.932;5.318;2022-09-09T05:11:50;15.20;99.90
18392;DHT22;9322;50.932;5.318;2022-09-09T05:14:16;15.10;99.90
18392;DHT22;9322;50.932;5.318;2022-09-09T05:16:44;15.30;99.90
18392;DHT22;9322;50.932;5.318;2022-09-09T05:19:10;15.40;99.90
18392;DHT22;9322;50.932;5.318;2022-09-09T05:21:37;15.40;99.90
18392;DHT22;9322;50.932;5.318;2022-09-09T05:24:02;15.20;99.90
18392;DHT22;9322;50.932;5.318;2022-09-09T05:26:28;15.20;99.90
18392;DHT22;9322;50.932;5.318;2022-09-09T05:28:55;15.20;99.90
18392;DHT22;9322;50.932;5.318;2022-09-09T05:31:21;15.10;99.90
18392;DHT22;9322;50.932;5.318;2022-09-09T05:33:47;15.10;99.90
18392;DHT22;9322;50.932;5.318;2022-09-09T05:36:19;15.30;99.90
18392;DHT22;9322;50.932;5.318;2022-09-09T05:38:46;15.40;99.90
18392;DHT22;9322;50.932;5.318;2022-09-09T05:41:13;15.40;99.90
18392;DHT22;9322;50.932;5.318;2022-09-09T05:43:41;15.50;99.90
18392;DHT22;9322;50.932;5.318;2022-09-09T05:46:11;15.60;99.90
18392;DHT22;9322;50.932;5.318;2022-09-09T05:48:39;15.50;99.90
18392;DHT22;9322;50.932;5.318;2022-09-09T05:51:08;15.60;99.90
18392;DHT22;9322;50.932;5.318;2022-09-09T05:53:35;15.70;99.90
18392;DHT22;9322;50.932;5.318;2022-09-09T05:56:10;15.60;99.90
18392;DHT22;9322;50.932;5.318;2022-09-09T05:58:40;15.70;99.90
18392;DHT22;9322;50.932;5.318;2022-09-09T06:01:14;15.80;99.90
18392;DHT22;9322;50.932;5.318;2022-09-09T06:03:42;15.80;99.90
18392;DHT22;9322;50.932;5.318;2022-09-09T06:06:14;15.80;99.90
18392;DHT22;9322;50.932;5.318;2022-09-09T06:08:41;15.80;99.90
18392;DHT22;9322;50.932;5.318;2022-09-09T06:11:21;16.00;99.90
18392;DHT22;9322;50.932;5.318;2022-09-09T06:13:47;16.10;99.90
18392;DHT22;9322;50.932;5.318;2022-09-09T06:16:15;15.90;99.90
18392;DHT22;9322;50.932;5.318;2022-09-09T06:18:41;16.00;99.90
18392;DHT22;9322;50.932;5.318;2022-09-09T06:21:15;16.20;99.90
18392;DHT22;9322;50.932;5.318;2022-09-09T06:23:41;16.30;99.90
18392;DHT22;9322;50.932;5.318;2022-09-09T06:28:38;16.60;99.90
18392;DHT22;9322;50.932;5.318;2022-09-09T06:31:06;16.50;99.90
18392;DHT22;9322;50.932;5.318;2022-09-09T06:33:34;16.80;99.90
18392;DHT22;9322;50.932;5.318;2022-09-09T06:36:05;17.00;99.90
18392;DHT22;9322;50.932;5.318;2022-09-09T06:38:31;18.10;99.90
18392;DHT22;9322;50.932;5.318;2022-09-09T06:40:58;18.80;99.90
18392;DHT22;9322;50.932;5.318;2022-09-09T06:43:25;19.80;99.90
18392;DHT22;9322;50.932;5.318;2022-09-09T06:46:06;20.20;99.90
18392;DHT22;9322;50.932;5.318;2022-09-09T06:48:33;20.00;99.90
18392;DHT22;9322;50.932;5.318;2022-09-09T06:51:09;19.90;99.90
18392;DHT22;9322;50.932;5.318;2022-09-09T06:53:38;20.80;99.90
18392;DHT22;9322;50.932;5.318;2022-09-09T06:58:39;19.00;99.90
18392;DHT22;9322;50.932;5.318;2022-09-09T07:01:13;18.30;99.90
18392;DHT22;9322;50.932;5.318;2022-09-09T07:03:39;17.80;99.90
18392;DHT22;9322;50.932;5.318;2022-09-09T07:06:06;17.80;99.90
18392;DHT22;9322;50.932;5.318;2022-09-09T07:08:33;17.70;99.90
18392;DHT22;9322;50.932;5.318;2022-09-09T07:11:03;17.70;99.90
18392;DHT22;9322;50.932;5.318;2022-09-09T07:13:30;17.80;99.90
18392;DHT22;9322;50.932;5.318;2022-09-09T07:16:07;17.70;99.90
18392;DHT22;9322;50.932;5.318;2022-09-09T07:18:33;17.60;99.90
18392;DHT22;9322;50.932;5.318;2022-09-09T07:21:00;17.70;99.90
18392;DHT22;9322;50.932;5.318;2022-09-09T07:23:27;17.70;99.90
18392;DHT22;9322;50.932;5.318;2022-09-09T07:25:53;18.10;99.90
18392;DHT22;9322;50.932;5.318;2022-09-09T07:28:20;18.60;99.90
18392;DHT22;9322;50.932;5.318;2022-09-09T07:30:56;19.40;99.90
18392;DHT22;9322;50.932;5.318;2022-09-09T07:33:23;19.50;99.90
18392;DHT22;9322;50.932;5.318;2022-09-09T07:35:49;19.30;99.90
18392;DHT22;9322;50.932;5.318;2022-09-09T07:38:15;18.90;99.90
18392;DHT22;9322;50.932;5.318;2022-09-09T07:40:41;20.20;99.90
18392;DHT22;9322;50.932;5.318;2022-09-09T07:43:06;20.10;99.90
18392;DHT22;9322;50.932;5.318;2022-09-09T07:45:34;19.50;99.90
18392;DHT22;9322;50.932;5.318;2022-09-09T07:48:00;18.60;99.90
18392;DHT22;9322;50.932;5.318;2022-09-09T07:50:26;18.40;99.90
18392;DHT22;9322;50.932;5.318;2022-09-09T07:52:52;18.30;99.90
18392;DHT22;9322;50.932;5.318;2022-09-09T07:55:22;18.60;99.90
18392;DHT22;9322;50.932;5.318;2022-09-09T07:57:53;18.00;99.90
18392;DHT22;9322;50.932;5.318;2022-09-09T08:00:19;17.50;99.90
18392;DHT22;9322;50.932;5.318;2022-09-09T08:02:45;17.50;99.90
18392;DHT22;9322;50.932;5.318;2022-09-09T08:05:12;17.60;99.90
18392;DHT22;9322;50.932;5.318;2022-09-09T08:07:38;17.40;99.90
18392;DHT22;9322;50.932;5.318;2022-09-09T08:10:04;17.50;99.90
18392;DHT22;9322;50.932;5.318;2022-09-09T08:12:32;17.40;99.90
18392;DHT22;9322;50.932;5.318;2022-09-09T08:14:58;17.20;99.90
18392;DHT22;9322;50.932;5.318;2022-09-09T08:17:23;17.30;99.90
18392;DHT22;9322;50.932;5.318;2022-09-09T08:19:49;17.30;99.90
18392;DHT22;9322;50.932;5.318;2022-09-09T08:22:15;17.20;99.90
18392;DHT22;9322;50.932;5.318;2022-09-09T08:24:40;17.10;99.90
18392;DHT22;9322;50.932;5.318;2022-09-09T08:27:06;17.20;99.90
18392;DHT22;9322;50.932;5.318;2022-09-09T08:29:32;17.20;99.90
18392;DHT22;9322;50.932;5.318;2022-09-09T08:31:58;17.30;99.90
18392;DHT22;9322;50.932;5.318;2022-09-09T08:34:25;17.30;99.90
18392;DHT22;9322;50.932;5.318;2022-09-09T08:36:53;17.10;99.90
18392;DHT22;9322;50.932;5.318;2022-09-09T08:39:20;17.00;99.90
18392;DHT22;9322;50.932;5.318;2022-09-09T08:44:57;17.20;99.90
18392;DHT22;9322;50.932;5.318;2022-09-09T08:53:02;17.10;99.90
18392;DHT22;9322;50.932;5.318;2022-09-09T08:58:09;17.20;99.90
18392;DHT22;9322;50.932;5.318;2022-09-09T09:09:15;17.00;99.90
18392;DHT22;9322;50.932;5.318;2022-09-09T09:11:55;17.30;99.90
18392;DHT22;9322;50.932;5.318;2022-09-09T09:14:28;17.40;99.90
18392;DHT22;9322;50.932;5.318;2022-09-09T09:17:00;17.30;99.90
18392;DHT22;9322;50.932;5.318;2022-09-09T09:19:28;17.20;99.90
18392;DHT22;9322;50.932;5.318;2022-09-09T09:27:11;17.60;99.90
18392;DHT22;9322;50.932;5.318;2022-09-09T09:29:38;17.60;99.90
18392;DHT22;9322;50.932;5.318;2022-09-09T09:32:07;17.50;99.90
18392;DHT22;9322;50.932;5.318;2022-09-09T09:34:35;17.70;99.90
18392;DHT22;9322;50.932;5.318;2022-09-09T09:37:01;18.00;99.90
18392;DHT22;9322;50.932;5.318;2022-09-09T09:39:29;17.80;99.90
18392;DHT22;9322;50.932;5.318;2022-09-09T09:41:56;18.00;99.90
18392;DHT22;9322;50.932;5.318;2022-09-09T09:44:31;18.60;99.90
18392;DHT22;9322;50.932;5.318;2022-09-09T09:49:39;18.10;99.90
18392;DHT22;9322;50.932;5.318;2022-09-09T09:52:06;18.10;99.90
18392;DHT22;9322;50.932;5.318;2022-09-09T09:54:37;18.00;99.90
18392;DHT22;9322;50.932;5.318;2022-09-09T09:57:12;17.90;99.90
18392;DHT22;9322;50.932;5.318;2022-09-09T09:59:40;18.00;99.90
18392;DHT22;9322;50.932;5.318;2022-09-09T10:02:22;18.10;99.90
18392;DHT22;9322;50.932;5.318;2022-09-09T10:05:25;17.90;99.90
18392;DHT22;9322;50.932;5.318;2022-09-09T10:08:05;17.20;99.90
18392;DHT22;9322;50.932;5.318;2022-09-09T10:19:05;16.70;99.90
18392;DHT22;9322;50.932;5.318;2022-09-09T10:30:12;16.60;99.90
18392;DHT22;9322;50.932;5.318;2022-09-09T10:35:31;16.50;99.90
18392;DHT22;9322;50.932;5.318;2022-09-09T10:57:32;16.80;99.90
18392;DHT22;9322;50.932;5.318;2022-09-09T11:00:05;16.90;99.90
18392;DHT22;9322;50.932;5.318;2022-09-09T11:02:33;17.40;99.90
18392;DHT22;9322;50.932;5.318;2022-09-09T11:07:40;17.50;99.90
18392;DHT22;9322;50.932;5.318;2022-09-09T11:10:38;17.80;99.90
18392;DHT22;9322;50.932;5.318;2022-09-09T11:16:05;17.40;99.90
18392;DHT22;9322;50.932;5.318;2022-09-09T11:18:38;17.30;99.90
18392;DHT22;9322;50.932;5.318;2022-09-09T11:21:08;17.40;99.90
18392;DHT22;9322;50.932;5.318;2022-09-09T11:23:59;17.60;99.90
18392;DHT22;9322;50.932;5.318;2022-09-09T11:26:37;17.90;99.90
18392;DHT22;9322;50.932;5.318;2022-09-09T11:42:36;19.80;99.90
18392;DHT22;9322;50.932;5.318;2022-09-09T11:45:23;19.40;99.90
18392;DHT22;9322;50.932;5.318;2022-09-09T11:53:28;19.10;99.90
18392;DHT22;9322;50.932;5.318;2022-09-09T11:56:09;18.90;99.90
18392;DHT22;9322;50.932;5.318;2022-09-09T11:58:44;18.90;99.90
18392;DHT22;9322;50.932;5.318;2022-09-09T12:01:34;18.50;99.90
18392;DHT22;9322;50.932;5.318;2022-09-09T12:06:53;18.40;99.90
18392;DHT22;9322;50.932;5.318;2022-09-09T12:12:30;17.90;99.90
18392;DHT22;9322;50.932;5.318;2022-09-09T12:14:58;17.80;99.90
18392;DHT22;9322;50.932;5.318;2022-09-09T12:17:27;18.00;99.90
18392;DHT22;9322;50.932;5.318;2022-09-09T12:20:16;18.00;99.90
18392;DHT22;9322;50.932;5.318;2022-09-09T12:23:00;17.40;99.90
18392;DHT22;9322;50.932;5.318;2022-09-09T12:28:18;17.60;99.90
18392;DHT22;9322;50.932;5.318;2022-09-09T12:31:05;17.50;99.90
18392;DHT22;9322;50.932;5.318;2022-09-09T12:33:35;17.50;99.90
18392;DHT22;9322;50.932;5.318;2022-09-09T12:36:03;18.10;99.90
18392;DHT22;9322;50.932;5.318;2022-09-09T12:38:39;19.00;99.90
18392;DHT22;9322;50.932;5.318;2022-09-09T12:41:04;19.10;99.90
18392;DHT22;9322;50.932;5.318;2022-09-09T12:43:30;19.50;99.90
18392;DHT22;9322;50.932;5.318;2022-09-09T12:46:03;19.90;99.90
18392;DHT22;9322;50.932;5.318;2022-09-09T12:48:40;20.00;99.90
18392;DHT22;9322;50.932;5.318;2022-09-09T12:51:21;20.10;99.90
18392;DHT22;9322;50.932;5.318;2022-09-09T12:53:51;20.40;99.90
18392;DHT22;9322;50.932;5.318;2022-09-09T12:56:30;20.10;99.90
18392;DHT22;9322;50.932;5.318;2022-09-09T12:58:57;19.90;99.90
18392;DHT22;9322;50.932;5.318;2022-09-09T13:01:29;20.00;99.90
18392;DHT22;9322;50.932;5.318;2022-09-09T13:03:55;20.40;99.90
18392;DHT22;9322;50.932;5.318;2022-09-09T13:08:58;21.10;99.90
18392;DHT22;9322;50.932;5.318;2022-09-09T13:14:02;21.20;99.90
18392;DHT22;9322;50.932;5.318;2022-09-09T13:16:33;21.00;99.90
18392;DHT22;9322;50.932;5.318;2022-09-09T13:19:08;20.90;99.90
18392;DHT22;9322;50.932;5.318;2022-09-09T13:21:36;20.00;99.90
18392;DHT22;9322;50.932;5.318;2022-09-09T13:24:21;20.30;99.90
18392;DHT22;9322;50.932;5.318;2022-09-09T13:27:02;20.20;99.90
18392;DHT22;9322;50.932;5.318;2022-09-09T13:29:28;20.30;99.90
18392;DHT22;9322;50.932;5.318;2022-09-09T13:32:04;20.40;99.90
18392;DHT22;9322;50.932;5.318;2022-09-09T13:34:33;20.30;99.90
18392;DHT22;9322;50.932;5.318;2022-09-09T13:37:05;20.30;99.90
18392;DHT22;9322;50.932;5.318;2022-09-09T13:39:35;20.30;99.90
18392;DHT22;9322;50.932;5.318;2022-09-09T13:42:03;20.10;99.90
18392;DHT22;9322;50.932;5.318;2022-09-09T13:44:31;20.40;99.90
18392;DHT22;9322;50.932;5.318;2022-09-09T13:47:18;20.40;99.90
18392;DHT22;9322;50.932;5.318;2022-09-09T13:49:45;20.50;99.90
18392;DHT22;9322;50.932;5.318;2022-09-09T13:52:15;20.50;99.90
18392;DHT22;9322;50.932;5.318;2022-09-09T13:54:42;20.70;99.90
18392;DHT22;9322;50.932;5.318;2022-09-09T13:57:18;21.20;99.90
18392;DHT22;9322;50.932;5.318;2022-09-09T13:59:47;21.50;99.90
18392;DHT22;9322;50.932;5.318;2022-09-09T14:02:15;21.60;99.90
18392;DHT22;9322;50.932;5.318;2022-09-09T14:04:42;21.40;99.90
18392;DHT22;9322;50.932;5.318;2022-09-09T14:07:12;21.30;99.90
18392;DHT22;9322;50.932;5.318;2022-09-09T14:09:38;21.20;99.90
18392;DHT22;9322;50.932;5.318;2022-09-09T14:12:05;20.80;99.90
18392;DHT22;9322;50.932;5.318;2022-09-09T14:14:30;20.80;99.90
18392;DHT22;9322;50.932;5.318;2022-09-09T14:16:56;20.80;99.90
18392;DHT22;9322;50.932;5.318;2022-09-09T14:19:21;21.00;99.90
18392;DHT22;9322;50.932;5.318;2022-09-09T14:21:48;20.90;99.90
18392;DHT22;9322;50.932;5.318;2022-09-09T14:24:14;20.80;99.90
18392;DHT22;9322;50.932;5.318;2022-09-09T14:26:39;21.00;99.90
18392;DHT22;9322;50.932;5.318;2022-09-09T14:29:06;21.10;99.90
18392;DHT22;9322;50.932;5.318;2022-09-09T14:31:32;21.00;99.90
18392;DHT22;9322;50.932;5.318;2022-09-09T14:33:58;21.20;99.90
18392;DHT22;9322;50.932;5.318;2022-09-09T14:36:24;21.10;99.90
18392;DHT22;9322;50.932;5.318;2022-09-09T14:38:50;21.00;99.90
18392;DHT22;9322;50.932;5.318;2022-09-09T14:41:18;21.30;99.90
18392;DHT22;9322;50.932;5.318;2022-09-09T14:43:44;21.20;99.90
18392;DHT22;9322;50.932;5.318;2022-09-09T14:46:12;21.50;99.90
18392;DHT22;9322;50.932;5.318;2022-09-09T14:48:38;21.60;97.10
18392;DHT22;9322;50.932;5.318;2022-09-09T14:51:28;21.70;94.70
18392;DHT22;9322;50.932;5.318;2022-09-09T14:53:58;21.40;97.30
18392;DHT22;9322;50.932;5.318;2022-09-09T14:56:27;21.50;99.90
18392;DHT22;9322;50.932;5.318;2022-09-09T14:58:57;21.50;99.90
18392;DHT22;9322;50.932;5.318;2022-09-09T15:01:24;21.30;99.90
18392;DHT22;9322;50.932;5.318;2022-09-09T15:03:57;21.20;99.90
18392;DHT22;9322;50.932;5.318;2022-09-09T15:06:24;21.00;99.90
18392;DHT22;9322;50.932;5.318;2022-09-09T15:08:52;21.00;99.90
18392;DHT22;9322;50.932;5.318;2022-09-09T15:11:18;20.90;99.90
18392;DHT22;9322;50.932;5.318;2022-09-09T15:13:45;21.10;99.90
18392;DHT22;9322;50.932;5.318;2022-09-09T15:18:38;21.30;99.90
18392;DHT22;9322;50.932;5.318;2022-09-09T15:21:18;21.30;99.90
18392;DHT22;9322;50.932;5.318;2022-09-09T15:23:48;21.30;99.90
18392;DHT22;9322;50.932;5.318;2022-09-09T15:26:14;21.10;99.90
18392;DHT22;9322;50.932;5.318;2022-09-09T15:28:41;21.00;99.90
18392;DHT22;9322;50.932;5.318;2022-09-09T15:33:55;21.10;99.90
18392;DHT22;9322;50.932;5.318;2022-09-09T15:36:31;21.10;99.90
18392;DHT22;9322;50.932;5.318;2022-09-09T15:38:58;20.70;99.90
18392;DHT22;9322;50.932;5.318;2022-09-09T15:41:25;20.90;99.90
18392;DHT22;9322;50.932;5.318;2022-09-09T15:43:52;21.00;99.90
18392;DHT22;9322;50.932;5.318;2022-09-09T15:46:28;21.00;99.90
18392;DHT22;9322;50.932;5.318;2022-09-09T15:48:57;20.80;99.90
18392;DHT22;9322;50.932;5.318;2022-09-09T15:51:24;20.90;99.90
18392;DHT22;9322;50.932;5.318;2022-09-09T15:53:57;20.80;99.90
18392;DHT22;9322;50.932;5.318;2022-09-09T15:56:24;21.00;99.90
18392;DHT22;9322;50.932;5.318;2022-09-09T15:58:51;21.10;99.90
18392;DHT22;9322;50.932;5.318;2022-09-09T16:01:18;20.90;99.90
18392;DHT22;9322;50.932;5.318;2022-09-09T16:03:45;21.00;99.90
18392;DHT22;9322;50.932;5.318;2022-09-09T16:06:17;20.90;99.90
18392;DHT22;9322;50.932;5.318;2022-09-09T16:08:44;20.90;99.90
18392;DHT22;9322;50.932;5.318;2022-09-09T16:11:14;20.80;99.90
18392;DHT22;9322;50.932;5.318;2022-09-09T16:13:44;20.50;99.90
18392;DHT22;9322;50.932;5.318;2022-09-09T16:16:12;20.50;99.90
18392;DHT22;9322;50.932;5.318;2022-09-09T16:18:43;20.40;99.90
18392;DHT22;9322;50.932;5.318;2022-09-09T16:21:21;20.40;99.90
18392;DHT22;9322;50.932;5.318;2022-09-09T16:23:49;20.30;99.90
18392;DHT22;9322;50.932;5.318;2022-09-09T16:26:16;20.20;99.90
18392;DHT22;9322;50.932;5.318;2022-09-09T16:28:42;20.10;99.90
18392;DHT22;9322;50.932;5.318;2022-09-09T16:31:11;19.90;99.90
18392;DHT22;9322;50.932;5.318;2022-09-09T16:33:39;19.90;99.90
18392;DHT22;9322;50.932;5.318;2022-09-09T16:36:06;19.80;99.90
18392;DHT22;9322;50.932;5.318;2022-09-09T16:38:32;19.70;99.90
18392;DHT22;9322;50.932;5.318;2022-09-09T16:41:02;19.50;99.90
18392;DHT22;9322;50.932;5.318;2022-09-09T16:43:28;19.30;99.90
18392;DHT22;9322;50.932;5.318;2022-09-09T16:45:53;19.40;99.90
18392;DHT22;9322;50.932;5.318;2022-09-09T16:48:19;19.30;99.90
18392;DHT22;9322;50.932;5.318;2022-09-09T16:50:45;19.30;99.90
18392;DHT22;9322;50.932;5.318;2022-09-09T16:53:12;19.20;99.90
18392;DHT22;9322;50.932;5.318;2022-09-09T16:55:41;19.00;99.90
18392;DHT22;9322;50.932;5.318;2022-09-09T16:58:09;19.00;99.90
18392;DHT22;9322;50.932;5.318;2022-09-09T17:00:35;18.90;99.90
18392;DHT22;9322;50.932;5.318;2022-09-09T17:03:01;18.90;99.90
18392;DHT22;9322;50.932;5.318;2022-09-09T17:05:28;19.00;99.90
18392;DHT22;9322;50.932;5.318;2022-09-09T17:07:54;19.00;99.90
18392;DHT22;9322;50.932;5.318;2022-09-09T17:10:23;19.00;99.90
18392;DHT22;9322;50.932;5.318;2022-09-09T17:12:49;18.90;99.90
18392;DHT22;9322;50.932;5.318;2022-09-09T17:15:15;18.90;99.90
18392;DHT22;9322;50.932;5.318;2022-09-09T17:17:41;19.00;99.90
18392;DHT22;9322;50.932;5.318;2022-09-09T17:20:10;19.00;99.90
18392;DHT22;9322;50.932;5.318;2022-09-09T17:22:36;18.90;99.90
18392;DHT22;9322;50.932;5.318;2022-09-09T17:25:02;19.00;99.90
18392;DHT22;9322;50.932;5.318;2022-09-09T17:27:28;18.90;99.90
18392;DHT22;9322;50.932;5.318;2022-09-09T17:29:57;18.70;99.90
18392;DHT22;9322;50.932;5.318;2022-09-09T17:32:23;18.80;99.90
18392;DHT22;9322;50.932;5.318;2022-09-09T17:34:49;18.90;99.90
18392;DHT22;9322;50.932;5.318;2022-09-09T17:37:15;18.70;99.90
18392;DHT22;9322;50.932;5.318;2022-09-09T17:39:41;18.80;99.90
18392;DHT22;9322;50.932;5.318;2022-09-09T17:42:06;18.90;99.90
18392;DHT22;9322;50.932;5.318;2022-09-09T17:44:35;18.90;99.90
18392;DHT22;9322;50.932;5.318;2022-09-09T17:47:01;18.70;99.90
18392;DHT22;9322;50.932;5.318;2022-09-09T17:49:29;18.70;99.90
18392;DHT22;9322;50.932;5.318;2022-09-09T17:51:55;18.40;99.90
18392;DHT22;9322;50.932;5.318;2022-09-09T17:54:21;18.10;99.90
18392;DHT22;9322;50.932;5.318;2022-09-09T17:56:47;17.90;99.90
18392;DHT22;9322;50.932;5.318;2022-09-09T17:59:15;17.60;99.90
18392;DHT22;9322;50.932;5.318;2022-09-09T18:01:43;17.60;99.90
18392;DHT22;9322;50.932;5.318;2022-09-09T18:04:10;17.60;99.90
18392;DHT22;9322;50.932;5.318;2022-09-09T18:06:44;17.50;99.90
18392;DHT22;9322;50.932;5.318;2022-09-09T18:09:13;17.40;99.90
18392;DHT22;9322;50.932;5.318;2022-09-09T18:11:42;17.40;99.90
18392;DHT22;9322;50.932;5.318;2022-09-09T18:14:10;17.40;99.90
18392;DHT22;9322;50.932;5.318;2022-09-09T18:16:37;17.40;99.90
18392;DHT22;9322;50.932;5.318;2022-09-09T18:19:05;17.50;99.90
18392;DHT22;9322;50.932;5.318;2022-09-09T18:21:32;17.30;99.90
18392;DHT22;9322;50.932;5.318;2022-09-09T18:23:59;17.30;99.90
18392;DHT22;9322;50.932;5.318;2022-09-09T18:26:26;17.20;99.90
18392;DHT22;9322;50.932;5.318;2022-09-09T18:28:57;17.20;99.90
18392;DHT22;9322;50.932;5.318;2022-09-09T18:31:25;17.20;99.90
18392;DHT22;9322;50.932;5.318;2022-09-09T18:33:52;17.20;99.90